createdAt,value
2023-04-02T00:00:36.397Z,100317.84
2023-04-02T00:03:10.137Z,100313.78
2023-04-02T00:05:51.545Z,100324.94
2023-04-02T00:08:24.269Z,100333.69
2023-04-02T00:10:54.597Z,100333.47
2023-04-02T00:13:41.112Z,100333.63
2023-04-02T00:16:13.067Z,100339.78
2023-04-02T00:18:46.317Z,100339.13
2023-04-02T00:21:26.301Z,100355.34
2023-04-02T00:23:59.072Z,100357.97
2023-04-02T00:26:33.185Z,100366.16
2023-04-02T00:29:01.728Z,100376.00
2023-04-02T00:31:29.391Z,100375.81
2023-04-02T00:33:56.206Z,100376.50
2023-04-02T00:36:26.504Z,100385.19
2023-04-02T00:38:56.807Z,100385.06
2023-04-02T00:41:27.143Z,100387.72
2023-04-02T00:43:54.613Z,100390.47
2023-04-02T00:46:27.501Z,100398.19
2023-04-02T00:49:08.926Z,100398.06
2023-04-02T00:51:39.100Z,100413.44
2023-04-02T00:54:10.240Z,100406.56
2023-04-02T00:56:46.237Z,100415.88
2023-04-02T00:59:32.014Z,100428.00
2023-04-02T01:02:26.258Z,100430.50
2023-04-02T01:04:55.668Z,100438.84
2023-04-02T01:07:55.031Z,100441.97
2023-04-02T01:10:51.475Z,100433.94
2023-04-02T01:13:53.097Z,100448.03
2023-04-02T01:16:25.785Z,100451.28
2023-04-02T01:19:19.995Z,100460.63
2023-04-02T01:21:57.049Z,100464.69
2023-04-02T01:24:29.745Z,100464.03
2023-04-02T01:27:21.508Z,100464.03
2023-04-02T01:29:52.977Z,100467.34
2023-04-02T01:32:21.608Z,100469.34
2023-04-02T01:34:50.624Z,100476.50
2023-04-02T01:37:34.077Z,100489.13
2023-04-02T01:40:12.964Z,100487.31
2023-04-02T01:43:06.269Z,100492.38
2023-04-02T01:45:34.907Z,100502.38
2023-04-02T01:48:05.941Z,100505.31
2023-04-02T01:50:39.451Z,100503.34
2023-04-02T01:53:16.242Z,100516.75
2023-04-02T01:55:44.856Z,100505.81
2023-04-02T01:58:14.026Z,100523.63
2023-04-02T02:00:47.919Z,100525.25
2023-04-02T02:03:15.756Z,100533.59
2023-04-02T02:05:42.644Z,100537.50
2023-04-02T02:08:22.650Z,100537.03
2023-04-02T02:10:49.314Z,100543.91
2023-04-02T02:13:16.399Z,100551.09
2023-04-02T02:15:43.923Z,100564.00
2023-04-02T02:18:12.854Z,100558.59
2023-04-02T02:20:39.692Z,100569.72
2023-04-02T02:23:07.116Z,100572.28
2023-04-02T02:25:35.947Z,100577.88
2023-04-02T02:28:26.134Z,100587.41
2023-04-02T02:31:01.986Z,100582.34
2023-04-02T02:33:39.060Z,100596.03
2023-04-02T02:36:13.769Z,100597.84
2023-04-02T02:38:57.991Z,100603.44
2023-04-02T02:41:24.545Z,100606.63
2023-04-02T02:43:59.675Z,100603.22
2023-04-02T02:46:27.457Z,100610.91
2023-04-02T02:48:56.754Z,100618.09
2023-04-02T02:51:29.225Z,100619.06
2023-04-02T02:54:03.014Z,100624.78
2023-04-02T02:56:31.249Z,100631.19
2023-04-02T02:59:00.112Z,100637.56
2023-04-02T03:01:29.141Z,100646.38
2023-04-02T03:03:56.022Z,100652.59
2023-04-02T03:06:22.580Z,100661.84
2023-04-02T03:08:57.784Z,100656.97
2023-04-02T03:11:42.942Z,100664.19
2023-04-02T03:14:28.812Z,100669.56
2023-04-02T03:17:04.314Z,100669.84
2023-04-02T03:19:49.941Z,100675.88
2023-04-02T03:22:23.522Z,100678.00
2023-04-02T03:25:03.710Z,100688.66
2023-04-02T03:27:39.066Z,100688.81
2023-04-02T03:30:17.614Z,100691.25
2023-04-02T03:32:47.175Z,100696.59
2023-04-02T03:35:32.346Z,100704.09
2023-04-02T03:38:02.627Z,100711.63
2023-04-02T03:40:34.502Z,100711.63
2023-04-02T03:43:21.936Z,100727.06
2023-04-02T03:45:53.069Z,100735.72
2023-04-02T03:48:29.160Z,100735.47
2023-04-02T03:51:05.992Z,100741.38
2023-04-02T03:53:33.106Z,100745.94
2023-04-02T03:56:01.870Z,100762.38
2023-04-02T03:58:42.903Z,100760.78
2023-04-02T04:01:31.870Z,100786.47
2023-04-02T04:04:08.740Z,100780.88
2023-04-02T04:06:37.090Z,100791.66
2023-04-02T04:09:39.308Z,100790.44
2023-04-02T04:12:08.827Z,100803.50
2023-04-02T04:14:39.897Z,100808.50
2023-04-02T04:17:09.450Z,100803.44
2023-04-02T04:19:41.922Z,100811.50
2023-04-02T04:22:15.163Z,100820.63
2023-04-02T04:24:45.469Z,100829.34
2023-04-02T04:27:21.115Z,100823.34
2023-04-02T04:30:16.907Z,100841.66
2023-04-02T04:33:04.649Z,100844.88
2023-04-02T04:35:33.127Z,100845.53
2023-04-02T04:38:08.184Z,100859.59
2023-04-02T04:40:42.191Z,100860.03
2023-04-02T04:43:19.025Z,100862.50
2023-04-02T04:45:54.367Z,100874.22
2023-04-02T04:48:26.773Z,100878.97
2023-04-02T04:51:20.915Z,100889.41
2023-04-02T04:53:49.929Z,100894.13
2023-04-02T04:56:30.925Z,100901.63
2023-04-02T04:59:15.364Z,100916.16
2023-04-02T05:02:03.247Z,100921.63
2023-04-02T05:04:37.053Z,100919.56
2023-04-02T05:07:23.683Z,100931.75
2023-04-02T05:09:49.989Z,100934.94
2023-04-02T05:12:21.679Z,100941.31
2023-04-02T05:14:54.596Z,100947.81
2023-04-02T05:17:28.028Z,100961.81
2023-04-02T05:20:10.810Z,100959.22
2023-04-02T05:22:42.469Z,100961.88
2023-04-02T05:25:25.340Z,100974.94
2023-04-02T05:27:54.727Z,100974.13
2023-04-02T05:30:23.881Z,100982.59
2023-04-02T05:33:07.878Z,100989.09
2023-04-02T05:35:36.708Z,100998.53
2023-04-02T05:38:05.724Z,101002.44
2023-04-02T05:40:43.765Z,101015.34
2023-04-02T05:43:15.417Z,101010.28
2023-04-02T05:45:45.942Z,101021.50
2023-04-02T05:48:19.003Z,101021.81
2023-04-02T05:50:51.515Z,101028.56
2023-04-02T05:53:32.860Z,101040.66
2023-04-02T05:55:59.210Z,101049.16
2023-04-02T05:58:37.281Z,101052.03
2023-04-02T06:01:18.609Z,101051.47
2023-04-02T06:04:03.162Z,101068.91
2023-04-02T06:06:45.523Z,101082.53
2023-04-02T06:09:29.742Z,101081.31
2023-04-02T06:12:24.106Z,101088.19
2023-04-02T06:14:50.689Z,101089.13
2023-04-02T06:17:19.923Z,101096.00
2023-04-02T06:19:48.021Z,101098.47
2023-04-02T06:22:39.985Z,101109.44
2023-04-02T06:25:25.686Z,101111.78
2023-04-02T06:27:55.140Z,101115.50
2023-04-02T06:30:27.823Z,101123.75
2023-04-02T06:32:54.342Z,101126.50
2023-04-02T06:35:20.941Z,101119.47
2023-04-02T06:37:51.094Z,101136.78
2023-04-02T06:40:35.633Z,101136.25
2023-04-02T06:43:07.796Z,101145.56
2023-04-02T06:45:41.990Z,101146.78
2023-04-02T06:48:17.053Z,101154.06
2023-04-02T06:50:48.594Z,101154.94
2023-04-02T06:53:36.440Z,101168.50
2023-04-02T06:56:19.715Z,101170.56
2023-04-02T06:58:46.420Z,101176.63
2023-04-02T07:01:19.635Z,101184.03
2023-04-02T07:03:46.267Z,101189.13
2023-04-02T07:06:17.942Z,101189.66
2023-04-02T07:08:44.302Z,101192.97
2023-04-02T07:11:20.905Z,101197.38
2023-04-02T07:13:48.681Z,101208.88
2023-04-02T07:16:18.940Z,101212.44
2023-04-02T07:18:46.242Z,101219.41
2023-04-02T07:21:12.675Z,101226.84
2023-04-02T07:23:39.207Z,101226.72
2023-04-02T07:26:07.638Z,101230.72
2023-04-02T07:28:34.369Z,101233.88
2023-04-02T07:31:01.226Z,101236.63
2023-04-02T07:33:29.860Z,101241.03
2023-04-02T07:35:57.635Z,101244.75
2023-04-02T07:38:24.580Z,101256.53
2023-04-02T07:40:51.080Z,101245.72
2023-04-02T07:43:17.445Z,101264.00
2023-04-02T07:45:43.854Z,101269.22
2023-04-02T07:48:12.977Z,101267.69
2023-04-02T07:50:39.533Z,101280.84
2023-04-02T07:53:07.055Z,101283.78
2023-04-02T07:55:34.089Z,101294.47
2023-04-02T07:58:00.688Z,101290.19
2023-04-02T08:00:28.593Z,101290.19
2023-04-02T08:02:55.031Z,101299.94
2023-04-02T08:05:22.818Z,101297.22
2023-04-02T08:07:55.034Z,101304.53
2023-04-02T08:10:22.052Z,101307.22
2023-04-02T08:12:49.558Z,101311.34
2023-04-02T08:15:16.670Z,101318.50
2023-04-02T08:17:43.766Z,101320.34
2023-04-02T08:20:22.296Z,101332.84
2023-04-02T08:22:49.794Z,101334.56
2023-04-02T08:25:16.913Z,101337.28
2023-04-02T08:27:46.292Z,101347.41
2023-04-02T08:30:16.053Z,101342.41
2023-04-02T08:32:42.792Z,101348.31
2023-04-02T08:35:11.171Z,101364.19
2023-04-02T08:37:37.711Z,101355.06
2023-04-02T08:40:06.982Z,101360.72
2023-04-02T08:42:44.693Z,101372.97
2023-04-02T08:45:24.918Z,101369.94
2023-04-02T08:47:56.473Z,101378.50
2023-04-02T08:50:34.030Z,101389.63
2023-04-02T08:53:04.381Z,101385.53
2023-04-02T08:55:49.598Z,101397.19
2023-04-02T08:58:28.375Z,101400.41
2023-04-02T09:00:57.719Z,101413.06
2023-04-02T09:03:42.713Z,101404.81
2023-04-02T09:06:16.593Z,101429.16
2023-04-02T09:08:46.271Z,101430.66
2023-04-02T09:11:27.701Z,101439.75
2023-04-02T09:14:00.277Z,101439.47
2023-04-02T09:16:55.010Z,101451.16
2023-04-02T09:19:33.741Z,101444.44
2023-04-02T09:22:18.813Z,101449.66
2023-04-02T09:24:45.328Z,101459.31
2023-04-02T09:27:23.279Z,101468.53
2023-04-02T09:29:53.999Z,101469.78
2023-04-02T09:32:46.393Z,101461.91
2023-04-02T09:35:26.301Z,101472.56
2023-04-02T09:38:18.082Z,101481.72
2023-04-02T09:40:49.401Z,101484.84
2023-04-02T09:43:19.463Z,101495.78
2023-04-02T09:46:06.192Z,101495.03
2023-04-02T09:48:41.633Z,101494.69
2023-04-02T09:51:14.299Z,101502.59
2023-04-02T09:53:46.168Z,101508.25
2023-04-02T09:56:21.748Z,101507.25
2023-04-02T09:59:15.336Z,101515.59
2023-04-02T10:01:53.664Z,101516.59
2023-04-02T10:04:47.748Z,101522.63
2023-04-02T10:07:34.617Z,101537.03
2023-04-02T10:10:04.188Z,101546.09
2023-04-02T10:12:41.486Z,101545.44
2023-04-02T10:15:16.415Z,101552.06
2023-04-02T10:17:43.925Z,101554.31
2023-04-02T10:20:24.235Z,101564.94
2023-04-02T10:22:50.828Z,101562.81
2023-04-02T10:25:21.180Z,101570.16
2023-04-02T10:28:11.645Z,101573.69
2023-04-02T10:30:57.348Z,101568.16
2023-04-02T10:33:33.143Z,101561.59
2023-04-02T10:36:11.671Z,101582.38
2023-04-02T10:38:58.909Z,101587.91
2023-04-02T10:41:57.053Z,101579.66
2023-04-02T10:44:29.503Z,101596.38
2023-04-02T10:47:33.966Z,101590.81
2023-04-02T10:50:08.544Z,101593.75
2023-04-02T10:52:51.531Z,101593.09
2023-04-02T10:55:23.749Z,101609.84
2023-04-02T10:57:52.883Z,101612.69
2023-04-02T11:00:25.210Z,101614.06
2023-04-02T11:02:57.511Z,101633.16
2023-04-02T11:05:43.979Z,101637.75
2023-04-02T11:08:18.383Z,101639.00
2023-04-02T11:10:50.417Z,101642.94
2023-04-02T11:13:28.337Z,101644.13
2023-04-02T11:15:55.040Z,101658.75
2023-04-02T11:18:29.149Z,101659.44
2023-04-02T11:20:58.849Z,101673.22
2023-04-02T11:23:31.475Z,101671.66
2023-04-02T11:26:35.371Z,101688.94
2023-04-02T11:29:08.143Z,101693.59
2023-04-02T11:31:34.997Z,101699.50
2023-04-02T11:34:01.469Z,101696.59
2023-04-02T11:36:50.786Z,101704.22
2023-04-02T11:39:51.366Z,101706.56
2023-04-02T11:42:25.372Z,101716.41
2023-04-02T11:44:53.089Z,101715.13
2023-04-02T11:47:24.188Z,101722.78
2023-04-02T11:50:03.316Z,101718.28
2023-04-02T11:52:36.837Z,101725.22
2023-04-02T11:55:24.668Z,101720.81
2023-04-02T11:58:06.163Z,101725.84
2023-04-02T12:01:11.702Z,101728.56
2023-04-02T12:03:56.237Z,101736.22
2023-04-02T12:06:42.280Z,101732.84
2023-04-02T12:09:24.808Z,101733.63
2023-04-02T12:12:15.580Z,101749.53
2023-04-02T12:14:43.742Z,101738.78
2023-04-02T12:17:39.894Z,101744.66
2023-04-02T12:20:09.538Z,101749.91
2023-04-02T12:22:40.290Z,101749.69
2023-04-02T12:25:29.295Z,101745.91
2023-04-02T12:28:12.558Z,101759.09
2023-04-02T12:30:39.080Z,101753.88
2023-04-02T12:33:20.890Z,101753.50
2023-04-02T12:35:48.939Z,101764.91
2023-04-02T12:38:34.810Z,101772.63
2023-04-02T12:41:18.486Z,101773.41
2023-04-02T12:43:44.984Z,101772.09
2023-04-02T12:46:14.775Z,101785.38
2023-04-02T12:48:43.748Z,101782.34
2023-04-02T12:51:16.255Z,101797.00
2023-04-02T12:53:51.172Z,101804.00
2023-04-02T12:56:22.977Z,101808.88
2023-04-02T12:59:01.981Z,101812.47
2023-04-02T13:01:32.741Z,101808.38
2023-04-02T13:04:01.382Z,101817.19
2023-04-02T13:06:27.954Z,101807.53
2023-04-02T13:08:55.041Z,101815.28
2023-04-02T13:11:22.613Z,101820.91
2023-04-02T13:13:50.320Z,101819.00
2023-04-02T13:16:19.725Z,101831.22
2023-04-02T13:18:48.703Z,101830.44
2023-04-02T13:21:21.116Z,101832.44
2023-04-02T13:23:49.742Z,101833.69
2023-04-02T13:26:25.765Z,101840.91
2023-04-02T13:29:29.392Z,101841.03
2023-04-02T13:32:02.299Z,101836.38
2023-04-02T13:34:29.749Z,101843.78
2023-04-02T13:36:57.396Z,101853.16
2023-04-02T13:39:24.684Z,101849.28
2023-04-02T13:42:04.459Z,101859.69
2023-04-02T13:44:32.640Z,101857.00
2023-04-02T13:47:00.572Z,101876.97
2023-04-02T13:49:27.671Z,101871.56
2023-04-02T13:52:00.843Z,101880.28
2023-04-02T13:54:44.702Z,101875.03
2023-04-02T13:57:11.786Z,101877.84
2023-04-02T13:59:38.268Z,101889.44
2023-04-02T14:02:10.539Z,101886.81
2023-04-02T14:04:45.100Z,101884.03
2023-04-02T14:07:24.744Z,101884.47
2023-04-02T14:10:06.390Z,101891.09
2023-04-02T14:13:09.090Z,101894.69
2023-04-02T14:15:43.492Z,101897.72
2023-04-02T14:18:21.180Z,101897.44
2023-04-02T14:21:11.828Z,101906.00
2023-04-02T14:23:54.520Z,101911.66
2023-04-02T14:26:39.712Z,101910.44
2023-04-02T14:29:20.543Z,101917.28
2023-04-02T14:32:25.845Z,101915.09
2023-04-02T14:35:10.722Z,101912.47
2023-04-02T14:37:48.551Z,101911.69
2023-04-02T14:40:30.323Z,101918.69
2023-04-02T14:43:10.001Z,101927.53
2023-04-02T14:45:58.269Z,101917.75
2023-04-02T14:48:47.779Z,101922.00
2023-04-02T14:51:30.188Z,101916.97
2023-04-02T14:54:03.578Z,101930.09
2023-04-02T14:56:38.003Z,101924.31
2023-04-02T14:59:23.167Z,101930.63
2023-04-02T15:01:55.406Z,101928.84
2023-04-02T15:04:30.785Z,101930.47
2023-04-02T15:07:04.767Z,101922.44
2023-04-02T15:09:38.523Z,101932.78
2023-04-02T15:12:28.707Z,101936.47
2023-04-02T15:15:02.581Z,101942.41
2023-04-02T15:17:29.203Z,101941.16
2023-04-02T15:20:07.211Z,101943.22
2023-04-02T15:22:47.567Z,101932.94
2023-04-02T15:25:27.708Z,101934.78
2023-04-02T15:28:07.137Z,101932.00
2023-04-02T15:30:36.931Z,101932.75
2023-04-02T15:33:35.902Z,101930.41
2023-04-02T15:36:30.263Z,101935.28
2023-04-02T15:39:25.570Z,101941.84
2023-04-02T15:42:10.524Z,101951.53
2023-04-02T15:44:46.601Z,101944.88
2023-04-02T15:47:47.290Z,101958.63
2023-04-02T15:50:42.875Z,101950.88
2023-04-02T15:53:28.728Z,101961.22
2023-04-02T15:56:13.950Z,101958.75
2023-04-02T15:58:54.366Z,101967.97
2023-04-02T16:01:33.796Z,101962.72
2023-04-02T16:04:19.563Z,101969.50
2023-04-02T16:07:09.107Z,101968.97
2023-04-02T16:09:46.498Z,101981.97
2023-04-02T16:12:19.562Z,101992.75
2023-04-02T16:14:48.602Z,101986.66
2023-04-02T16:17:25.616Z,101991.66
2023-04-02T16:20:05.494Z,101994.13
2023-04-02T16:22:34.110Z,101997.03
2023-04-02T16:25:06.794Z,101998.13
2023-04-02T16:27:39.971Z,102012.94
2023-04-02T16:30:34.578Z,102003.50
2023-04-02T16:33:33.681Z,102008.63
2023-04-02T16:36:06.058Z,102016.50
2023-04-02T16:38:44.318Z,102011.53
2023-04-02T16:41:26.116Z,102018.16
2023-04-02T16:43:59.301Z,102019.38
2023-04-02T16:47:03.241Z,102019.38
2023-04-02T16:49:47.371Z,102020.09
2023-04-02T16:52:31.160Z,102029.91
2023-04-02T16:55:12.725Z,102036.34
2023-04-02T16:57:54.545Z,102048.50
2023-04-02T17:00:24.564Z,102048.50
2023-04-02T17:03:12.389Z,102047.66
2023-04-02T17:05:59.263Z,102060.88
2023-04-02T17:08:27.496Z,102071.59
2023-04-02T17:11:01.222Z,102072.16
2023-04-02T17:14:07.560Z,102076.81
2023-04-02T17:16:41.861Z,102077.34
2023-04-02T17:19:12.563Z,102085.59
2023-04-02T17:21:43.420Z,102085.59
2023-04-02T17:24:23.907Z,102096.91
2023-04-02T17:26:54.817Z,102093.44
2023-04-02T17:29:32.624Z,102101.31
2023-04-02T17:32:01.726Z,102096.53
2023-04-02T17:34:28.416Z,102104.78
2023-04-02T17:37:29.136Z,102111.81
2023-04-02T17:40:10.685Z,102111.09
2023-04-02T17:43:09.957Z,102115.66
2023-04-02T17:45:50.801Z,102129.66
2023-04-02T17:48:28.580Z,102131.69
2023-04-02T17:51:12.397Z,102134.13
2023-04-02T17:53:54.516Z,102135.16
2023-04-02T17:56:42.720Z,102142.41
2023-04-02T17:59:28.273Z,102147.88
2023-04-02T18:02:13.056Z,102146.63
2023-04-02T18:04:43.646Z,102149.69
2023-04-02T18:07:30.995Z,102153.25
2023-04-02T18:10:22.146Z,102163.06
2023-04-02T18:13:14.614Z,102164.13
2023-04-02T18:16:12.612Z,102180.00
2023-04-02T18:19:10.022Z,102179.31
2023-04-02T18:21:46.680Z,102178.25
2023-04-02T18:24:25.311Z,102186.22
2023-04-02T18:26:58.271Z,102191.22
2023-04-02T18:29:51.774Z,102191.34
2023-04-02T18:32:42.991Z,102195.38
2023-04-02T18:35:29.734Z,102202.41
2023-04-02T18:38:24.119Z,102202.03
2023-04-02T18:40:59.652Z,102208.44
2023-04-02T18:43:36.365Z,102208.53
2023-04-02T18:46:08.967Z,102205.44
2023-04-02T18:49:12.870Z,102216.97
2023-04-02T18:51:39.978Z,102217.88
2023-04-02T18:54:09.304Z,102224.28
2023-04-02T18:56:40.358Z,102230.34
2023-04-02T18:59:32.488Z,102232.28
2023-04-02T19:02:04.615Z,102235.72
2023-04-02T19:04:32.697Z,102244.78
2023-04-02T19:07:14.121Z,102245.72
2023-04-02T19:09:44.110Z,102249.53
2023-04-02T19:12:19.997Z,102248.28
2023-04-02T19:14:51.988Z,102255.28
2023-04-02T19:17:41.881Z,102258.53
2023-04-02T19:20:11.013Z,102254.56
2023-04-02T19:23:12.824Z,102263.00
2023-04-02T19:26:06.236Z,102260.53
2023-04-02T19:28:38.534Z,102267.53
2023-04-02T19:31:11.296Z,102274.94
2023-04-02T19:34:01.806Z,102265.00
2023-04-02T19:36:33.919Z,102277.59
2023-04-02T19:39:31.288Z,102278.34
2023-04-02T19:42:07.083Z,102285.19
2023-04-02T19:44:33.560Z,102281.97
2023-04-02T19:47:00.089Z,102282.28
2023-04-02T19:49:30.326Z,102276.97
2023-04-02T19:51:57.005Z,102289.44
2023-04-02T19:54:23.549Z,102292.75
2023-04-02T19:56:50.312Z,102285.72
2023-04-02T19:59:18.584Z,102292.06
2023-04-02T20:01:46.301Z,102299.72
2023-04-02T20:04:13.309Z,102304.75
2023-04-02T20:06:39.851Z,102301.00
2023-04-02T20:09:07.876Z,102298.56
2023-04-02T20:11:36.146Z,102306.00
2023-04-02T20:14:02.640Z,102306.09
2023-04-02T20:16:29.055Z,102306.03
2023-04-02T20:18:55.527Z,102312.16
2023-04-02T20:21:21.909Z,102314.03
2023-04-02T20:23:48.320Z,102317.09
2023-04-02T20:26:14.684Z,102323.31
2023-04-02T20:28:41.324Z,102331.66
2023-04-02T20:31:10.533Z,102335.03
2023-04-02T20:33:37.726Z,102337.63
2023-04-02T20:36:09.192Z,102336.88
2023-04-02T20:38:36.884Z,102338.53
2023-04-02T20:41:05.396Z,102342.91
2023-04-02T20:43:31.971Z,102342.81
2023-04-02T20:46:05.413Z,102342.44
2023-04-02T20:48:32.696Z,102347.84
2023-04-02T20:51:00.748Z,102347.66
2023-04-02T20:53:33.595Z,102353.41
2023-04-02T20:56:26.760Z,102361.66
2023-04-02T20:58:53.158Z,102362.72
2023-04-02T21:01:24.666Z,102360.19
2023-04-02T21:03:58.869Z,102364.91
2023-04-02T21:06:27.916Z,102361.72
2023-04-02T21:08:54.367Z,102365.13
2023-04-02T21:11:24.223Z,102370.09
2023-04-02T21:13:50.886Z,102366.84
2023-04-02T21:16:29.012Z,102365.06
2023-04-02T21:18:58.338Z,102377.63
2023-04-02T21:21:24.745Z,102378.13
2023-04-02T21:23:59.665Z,102371.56
2023-04-02T21:26:26.960Z,102375.56
2023-04-02T21:28:53.887Z,102383.53
2023-04-02T21:31:29.425Z,102382.78
2023-04-02T21:33:58.736Z,102386.97
2023-04-02T21:36:33.333Z,102387.38
2023-04-02T21:39:06.654Z,102385.19
2023-04-02T21:41:39.938Z,102384.78
2023-04-02T21:44:08.336Z,102391.50
2023-04-02T21:46:38.419Z,102380.53
2023-04-02T21:49:08.014Z,102388.22
2023-04-02T21:51:36.406Z,102383.34
2023-04-02T21:54:03.333Z,102388.50
2023-04-02T21:56:35.526Z,102386.91
2023-04-02T21:59:03.146Z,102388.16
2023-04-02T22:01:32.723Z,102395.44
2023-04-02T22:04:02.173Z,102396.66
2023-04-02T22:06:31.215Z,102389.63
2023-04-02T22:09:04.777Z,102396.31
2023-04-02T22:11:34.293Z,102392.97
2023-04-02T22:14:03.327Z,102405.56
2023-04-02T22:16:31.535Z,102403.22
2023-04-02T22:19:00.802Z,102416.88
2023-04-02T22:21:27.739Z,102403.06
2023-04-02T22:23:54.781Z,102407.91
2023-04-02T22:26:25.640Z,102406.25
2023-04-02T22:28:52.776Z,102412.09
2023-04-02T22:31:25.351Z,102421.16
2023-04-02T22:33:53.859Z,102419.91
2023-04-02T22:36:22.233Z,102422.66
2023-04-02T22:38:49.461Z,102431.88
2023-04-02T22:41:22.416Z,102422.91
2023-04-02T22:43:49.508Z,102433.53
2023-04-02T22:46:17.982Z,102431.94
2023-04-02T22:48:46.183Z,102433.13
2023-04-02T22:51:14.765Z,102443.59
2023-04-02T22:53:42.885Z,102443.16
2023-04-02T22:56:13.951Z,102441.66
2023-04-02T22:58:41.152Z,102454.31
2023-04-02T23:01:17.084Z,102442.78
2023-04-02T23:03:43.743Z,102437.47
2023-04-02T23:06:12.960Z,102444.09
2023-04-02T23:08:40.438Z,102449.44
2023-04-02T23:11:12.596Z,102446.56
2023-04-02T23:13:39.896Z,102440.22
2023-04-02T23:16:11.210Z,102439.38
2023-04-02T23:18:39.509Z,102445.75
2023-04-02T23:21:06.549Z,102441.97
2023-04-02T23:23:33.770Z,102441.81
2023-04-02T23:26:06.128Z,102443.81
2023-04-02T23:28:33.078Z,102443.16
2023-04-02T23:31:01.456Z,102451.34
2023-04-02T23:33:27.938Z,102452.59
2023-04-02T23:35:54.431Z,102451.06
2023-04-02T23:38:20.854Z,102460.31
2023-04-02T23:40:47.294Z,102460.31
2023-04-02T23:43:13.646Z,102463.69
2023-04-02T23:45:40.251Z,102458.97
2023-04-02T23:48:06.767Z,102458.91
2023-04-02T23:50:33.157Z,102460.16
2023-04-02T23:52:59.515Z,102452.22
2023-04-02T23:55:25.915Z,102457.78
2023-04-02T23:57:52.340Z,102459.53
